Time;durP1;ratioP1;P1;durP2;ratioP2;P2;SDS_P1;SDS_P2;PMS_P1;PMS_P2;Temp;Humidity;BMP_temperature;BMP_pressure;BME280_temperature;BME280_humidity;BME280_pressure;Samples;Min_cycle;Max_cycle;Signal;HPM_P1;HPM_P2
2021/06/23 00:00:32;;;;;;;9.90;3.90;;;14.40;74.70;;;;;;4976099;28;20638;-86
2021/06/23 00:02:58;;;;;;;6.63;3.73;;;14.40;75.40;;;;;;4976494;28;20238;-86
2021/06/23 00:05:24;;;;;;;15.10;3.90;;;14.40;74.90;;;;;;4976336;28;20909;-85
2021/06/23 00:07:50;;;;;;;11.98;4.03;;;14.40;74.50;;;;;;4976705;28;20485;-86
2021/06/23 00:10:16;;;;;;;5.15;3.60;;;14.40;74.50;;;;;;5005063;28;20203;-87
2021/06/23 00:12:43;;;;;;;8.80;4.13;;;14.30;74.50;;;;;;4976745;28;20202;-86
2021/06/23 00:15:14;;;;;;;9.23;3.50;;;14.30;74.80;;;;;;4980832;28;20407;-85
2021/06/23 00:17:41;;;;;;;8.75;2.90;;;14.50;75.20;;;;;;4991191;28;20191;-86
2021/06/23 00:20:07;;;;;;;8.70;3.88;;;14.50;74.70;;;;;;4977110;28;20206;-86
2021/06/23 00:22:33;;;;;;;9.80;4.20;;;14.50;74.20;;;;;;4976106;28;20686;-86
2021/06/23 00:24:59;;;;;;;7.53;3.93;;;14.40;74.70;;;;;;4976289;28;20190;-85
2021/06/23 00:27:25;;;;;;;12.37;5.00;;;14.50;74.20;;;;;;4976371;28;20918;-86
2021/06/23 00:29:51;;;;;;;5.82;3.05;;;14.40;74.20;;;;;;4976215;28;20426;-85
2021/06/23 00:32:21;;;;;;;8.25;3.88;;;14.40;74.10;;;;;;4975784;28;20302;-85
2021/06/23 00:34:48;;;;;;;5.90;3.20;;;14.40;74.80;;;;;;4976390;28;20266;-87
2021/06/23 00:37:16;;;;;;;8.15;3.42;;;14.40;73.80;;;;;;4976380;28;20186;-85
2021/06/23 00:39:42;;;;;;;6.68;3.33;;;14.50;74.30;;;;;;4976231;28;20225;-86
2021/06/23 00:42:09;;;;;;;12.90;4.60;;;14.60;74.00;;;;;;4975774;28;20206;-86
2021/06/23 00:44:38;;;;;;;13.40;3.13;;;14.80;73.70;;;;;;4976509;28;20190;-87
2021/06/23 00:47:04;;;;;;;6.47;3.10;;;14.70;73.40;;;;;;4976848;28;20187;-87
2021/06/23 00:49:33;;;;;;;4.37;3.20;;;14.70;72.90;;;;;;4985096;28;20183;-86
2021/06/23 00:52:00;;;;;;;12.15;3.80;;;14.70;72.80;;;;;;4994807;28;20493;-86
2021/06/23 00:54:26;;;;;;;5.68;3.70;;;14.90;73.20;;;;;;4992942;28;20183;-86
2021/06/23 00:56:52;;;;;;;16.20;4.45;;;14.90;73.60;;;;;;4957864;28;20211;-86
2021/06/23 00:59:18;;;;;;;8.32;4.28;;;14.80;73.40;;;;;;4957565;28;20274;-86
2021/06/23 01:01:44;;;;;;;7.18;4.03;;;14.80;73.40;;;;;;4973873;28;20243;-86
2021/06/23 01:04:11;;;;;;;12.27;4.10;;;14.80;72.80;;;;;;4958841;28;20636;-86
2021/06/23 01:06:37;;;;;;;7.55;4.03;;;14.70;73.00;;;;;;4980370;28;20176;-86
2021/06/23 01:09:04;;;;;;;7.40;4.25;;;14.80;73.20;;;;;;4958617;28;20191;-85
2021/06/23 01:11:30;;;;;;;14.10;3.80;;;14.70;73.10;;;;;;4958580;28;20303;-86
2021/06/23 01:14:05;;;;;;;12.50;4.17;;;14.80;73.30;;;;;;4957043;28;20665;-85
2021/06/23 01:16:34;;;;;;;7.18;4.30;;;14.70;75.20;;;;;;4958376;28;20430;-85
2021/06/23 01:19:06;;;;;;;9.00;4.18;;;14.90;74.50;;;;;;4960780;28;20642;-85
2021/06/23 01:21:31;;;;;;;15.68;4.00;;;14.90;73.80;;;;;;4967108;28;20286;-85
2021/06/23 01:23:57;;;;;;;4.90;3.30;;;14.80;73.70;;;;;;4961508;28;20705;-86
2021/06/23 01:26:23;;;;;;;9.37;4.30;;;14.90;73.00;;;;;;4960798;28;20238;-86
2021/06/23 01:28:49;;;;;;;8.60;4.57;;;14.90;72.40;;;;;;4967527;28;20187;-86
2021/06/23 01:31:16;;;;;;;6.03;4.00;;;14.80;72.40;;;;;;4978756;28;20211;-85
2021/06/23 01:33:42;;;;;;;6.50;4.03;;;14.90;72.50;;;;;;4979251;28;20175;-85
2021/06/23 01:36:08;;;;;;;8.90;4.67;;;14.80;72.20;;;;;;4979387;28;20181;-85
2021/06/23 01:38:34;;;;;;;9.20;4.63;;;14.70;72.50;;;;;;4979328;28;20199;-85
2021/06/23 01:41:00;;;;;;;8.80;4.50;;;14.80;72.60;;;;;;4978715;28;20215;-85
2021/06/23 01:43:25;;;;;;;7.50;4.70;;;14.80;73.20;;;;;;4980089;28;20273;-86
2021/06/23 01:45:51;;;;;;;6.80;4.57;;;14.70;73.80;;;;;;4979770;28;20426;-86
2021/06/23 01:48:24;;;;;;;14.57;4.10;;;14.70;73.20;;;;;;4979020;28;20175;-86
2021/06/23 01:50:59;;;;;;;10.00;5.20;;;14.80;73.20;;;;;;4978372;28;20474;-85
2021/06/23 01:53:26;;;;;;;12.18;5.80;;;14.80;73.30;;;;;;4996534;28;20179;-85
2021/06/23 01:55:52;;;;;;;11.35;5.10;;;14.70;72.80;;;;;;4979278;28;20655;-86
2021/06/23 01:58:20;;;;;;;7.82;4.50;;;14.80;72.40;;;;;;4978892;28;20195;-85
2021/06/23 02:01:14;;;;;;;14.00;4.97;;;14.80;73.40;;;;;;4990627;28;20517;-86
2021/06/23 02:04:11;;;;;;;7.55;3.97;;;14.80;72.90;;;;;;4978996;28;20195;-86
2021/06/23 02:06:49;;;;;;;9.40;4.95;;;14.80;72.50;;;;;;4965174;28;20191;-85
2021/06/23 02:09:33;;;;;;;12.00;5.05;;;14.80;72.90;;;;;;4978677;28;20219;-86
2021/06/23 02:12:25;;;;;;;10.95;5.45;;;14.70;73.80;;;;;;4977739;28;20265;-85
2021/06/23 02:14:59;;;;;;;12.15;6.65;;;14.80;73.90;;;;;;4986967;28;20255;-85
2021/06/23 02:17:26;;;;;;;7.05;5.68;;;14.80;72.90;;;;;;4995878;28;20175;-86
2021/06/23 02:19:54;;;;;;;13.25;6.10;;;14.80;73.00;;;;;;4994950;28;20583;-86
2021/06/23 02:22:24;;;;;;;9.50;5.80;;;14.80;73.20;;;;;;4994226;28;20199;-87
2021/06/23 02:24:53;;;;;;;8.15;5.63;;;15.00;73.40;;;;;;5010872;28;20286;-86
2021/06/23 02:27:20;;;;;;;9.65;6.38;;;15.00;73.00;;;;;;5010278;28;20187;-85
2021/06/23 02:29:47;;;;;;;8.50;5.60;;;14.80;73.00;;;;;;4994745;28;20170;-86
2021/06/23 02:32:17;;;;;;;16.08;6.00;;;14.80;73.60;;;;;;4993926;28;20254;-86
2021/06/23 02:34:48;;;;;;;13.38;5.10;;;14.80;73.40;;;;;;4994398;28;20160;-86
2021/06/23 02:37:15;;;;;;;15.07;6.13;;;14.80;74.00;;;;;;4978865;28;20545;-86
2021/06/23 02:39:41;;;;;;;9.88;5.53;;;14.80;73.50;;;;;;4994306;28;20198;-86
2021/06/23 02:42:08;;;;;;;10.20;6.90;;;14.80;73.90;;;;;;4993922;28;20203;-85
2021/06/23 02:44:34;;;;;;;11.77;6.63;;;14.80;75.80;;;;;;4994639;28;20276;-86
2021/06/23 02:47:00;;;;;;;16.07;7.03;;;14.60;77.30;;;;;;4994321;28;20211;-86
2021/06/23 02:49:26;;;;;;;12.15;8.35;;;14.60;78.50;;;;;;4995421;28;20183;-86
2021/06/23 02:51:55;;;;;;;14.37;8.73;;;14.50;79.40;;;;;;4977580;28;20221;-86
2021/06/23 02:54:24;;;;;;;13.85;8.98;;;14.40;80.20;;;;;;4978156;28;20185;-86
2021/06/23 02:56:51;;;;;;;16.98;9.70;;;14.30;81.20;;;;;;4979508;28;20603;-86
2021/06/23 02:59:18;;;;;;;18.85;9.73;;;14.10;81.70;;;;;;4978281;28;20189;-87
2021/06/23 03:01:44;;;;;;;15.27;10.57;;;13.90;82.80;;;;;;4977084;28;20391;-86
2021/06/23 03:04:10;;;;;;;19.52;10.32;;;13.90;84.10;;;;;;4993805;28;20599;-86
2021/06/23 03:06:36;;;;;;;16.20;10.10;;;13.80;85.00;;;;;;4993973;28;20191;-87
2021/06/23 03:09:02;;;;;;;31.77;12.23;;;13.90;85.80;;;;;;4977665;28;20186;-86
2021/06/23 03:11:39;;;;;;;16.92;12.35;;;13.70;86.40;;;;;;4977512;28;20215;-87
2021/06/23 03:14:05;;;;;;;20.70;12.75;;;13.60;86.60;;;;;;4995130;28;20179;-87
2021/06/23 03:16:32;;;;;;;19.52;13.73;;;13.60;87.10;;;;;;4977957;28;20183;-87
2021/06/23 03:18:58;;;;;;;22.92;14.02;;;13.60;87.50;;;;;;4978648;28;20642;-86
2021/06/23 03:21:24;;;;;;;31.00;14.00;;;13.70;88.10;;;;;;4979979;28;20253;-87
2021/06/23 03:23:52;;;;;;;25.08;15.70;;;13.60;88.70;;;;;;4985383;28;20423;-86
2021/06/23 03:26:19;;;;;;;21.20;13.57;;;13.60;89.30;;;;;;4991378;28;20187;-87
2021/06/23 03:28:45;;;;;;;33.15;16.70;;;13.60;89.50;;;;;;4996640;28;20179;-86
2021/06/23 03:31:12;;;;;;;25.45;15.55;;;13.60;89.70;;;;;;4987781;28;20215;-87
2021/06/23 03:33:38;;;;;;;28.52;15.95;;;13.60;89.60;;;;;;4978894;28;20186;-87
2021/06/23 03:36:05;;;;;;;28.25;15.98;;;13.50;89.40;;;;;;4990431;28;20190;-86
2021/06/23 03:38:31;;;;;;;24.90;15.20;;;13.50;89.00;;;;;;4980744;28;20253;-86
2021/06/23 03:40:57;;;;;;;24.05;15.55;;;13.40;88.50;;;;;;4996249;28;20674;-86
2021/06/23 03:43:23;;;;;;;29.80;17.03;;;13.40;88.50;;;;;;4979313;28;20210;-86
2021/06/23 03:45:48;;;;;;;34.03;17.87;;;13.40;88.40;;;;;;4978266;28;20465;-86
2021/06/23 03:48:15;;;;;;;30.33;16.77;;;13.40;88.20;;;;;;4988669;28;20469;-85
2021/06/23 03:50:44;;;;;;;39.40;16.63;;;13.40;88.10;;;;;;4997203;28;20263;-85
2021/06/23 03:53:10;;;;;;;24.08;15.77;;;13.40;88.30;;;;;;4999029;28;20163;-85
2021/06/23 03:55:36;;;;;;;24.42;16.55;;;13.40;88.30;;;;;;4991354;28;20211;-84
2021/06/23 03:58:03;;;;;;;23.33;17.53;;;13.30;88.30;;;;;;4998894;28;20190;-85
2021/06/23 04:00:29;;;;;;;33.15;17.90;;;13.40;88.40;;;;;;4997941;28;20403;-86
2021/06/23 04:02:56;;;;;;;27.05;16.70;;;13.50;88.60;;;;;;4997549;28;20215;-85
2021/06/23 04:05:22;;;;;;;26.35;17.73;;;13.50;88.70;;;;;;4995681;28;20206;-85
2021/06/23 04:07:48;;;;;;;31.53;17.57;;;13.50;88.80;;;;;;4990149;28;20203;-85
2021/06/23 04:10:15;;;;;;;40.80;17.80;;;13.50;88.50;;;;;;4976520;28;20430;-86
2021/06/23 04:12:41;;;;;;;30.05;16.58;;;13.50;88.30;;;;;;4976529;28;20199;-87
2021/06/23 04:15:10;;;;;;;40.90;17.90;;;13.50;88.30;;;;;;4976774;28;20179;-86
2021/06/23 04:17:36;;;;;;;35.85;19.70;;;13.60;88.60;;;;;;4976710;28;20182;-85
2021/06/23 04:20:03;;;;;;;41.03;19.57;;;13.50;88.20;;;;;;4976840;28;20646;-86
2021/06/23 04:22:29;;;;;;;41.53;21.58;;;13.60;88.10;;;;;;4976364;28;20209;-85
2021/06/23 04:24:55;;;;;;;32.30;20.63;;;13.70;88.30;;;;;;4977060;28;20183;-85
2021/06/23 04:27:22;;;;;;;38.23;20.00;;;13.60;88.10;;;;;;4994174;28;20666;-85
2021/06/23 04:29:48;;;;;;;32.05;19.45;;;13.70;88.00;;;;;;4982814;28;20414;-85
2021/06/23 04:32:14;;;;;;;32.45;19.08;;;13.60;87.90;;;;;;4993007;28;20225;-84
2021/06/23 04:34:40;;;;;;;34.17;19.00;;;13.60;87.30;;;;;;4981159;28;20179;-85
2021/06/23 04:37:06;;;;;;;35.40;18.80;;;13.70;87.30;;;;;;4993348;28;20422;-85
2021/06/23 04:39:32;;;;;;;34.17;16.67;;;13.70;86.70;;;;;;4978649;28;20282;-85
2021/06/23 04:41:58;;;;;;;29.13;18.60;;;13.60;86.50;;;;;;4976799;28;20198;-86
2021/06/23 04:44:23;;;;;;;35.73;19.03;;;13.70;86.70;;;;;;4979336;28;20437;-85
2021/06/23 04:46:49;;;;;;;34.03;19.03;;;13.70;86.60;;;;;;4986015;28;20253;-85
2021/06/23 04:49:15;;;;;;;28.80;18.37;;;13.70;86.50;;;;;;4977047;28;20190;-84
2021/06/23 04:51:40;;;;;;;31.77;18.37;;;13.70;86.10;;;;;;4980019;28;20207;-85
2021/06/23 04:54:06;;;;;;;32.73;17.70;;;13.60;85.50;;;;;;4981434;28;20179;-85
2021/06/23 04:56:32;;;;;;;27.60;17.83;;;13.60;85.20;;;;;;4981996;28;20266;-85
2021/06/23 04:58:58;;;;;;;35.50;19.57;;;13.60;85.50;;;;;;4962132;28;20266;-85
2021/06/23 05:01:25;;;;;;;28.13;19.25;;;13.80;85.40;;;;;;4960075;28;20204;-85
2021/06/23 05:03:50;;;;;;;30.45;18.63;;;13.80;85.70;;;;;;4960707;28;20279;-85
2021/06/23 05:06:16;;;;;;;27.27;18.30;;;13.90;85.70;;;;;;4978290;28;20272;-84
2021/06/23 05:08:42;;;;;;;27.95;17.15;;;13.90;86.00;;;;;;4960890;28;20639;-85
2021/06/23 05:11:08;;;;;;;40.67;19.73;;;14.00;85.90;;;;;;4960296;28;20222;-85
2021/06/23 05:13:35;;;;;;;28.90;16.80;;;14.00;85.60;;;;;;4961146;28;20615;-85
2021/06/23 05:16:01;;;;;;;27.00;16.05;;;14.00;84.50;;;;;;4960664;28;20203;-85
2021/06/23 05:18:29;;;;;;;23.10;15.97;;;14.10;84.30;;;;;;4960617;28;20594;-85
2021/06/23 05:20:56;;;;;;;35.35;19.20;;;13.90;83.50;;;;;;4959976;28;20280;-85
2021/06/23 05:23:22;;;;;;;23.10;15.32;;;13.90;82.80;;;;;;4960218;28;20188;-85
2021/06/23 05:25:48;;;;;;;30.63;16.27;;;14.00;82.70;;;;;;4960616;28;20639;-85
2021/06/23 05:28:14;;;;;;;27.83;14.95;;;14.00;82.40;;;;;;4963583;28;20325;-84
2021/06/23 05:30:39;;;;;;;23.17;15.60;;;14.10;83.20;;;;;;4980641;28;20293;-83
2021/06/23 05:33:05;;;;;;;25.47;15.47;;;14.00;83.10;;;;;;4981219;28;20182;-84
2021/06/23 05:35:31;;;;;;;24.43;14.80;;;14.10;82.90;;;;;;4991869;28;20172;-84
2021/06/23 05:37:57;;;;;;;26.40;14.97;;;14.00;82.90;;;;;;4991559;28;20183;-83
2021/06/23 05:40:22;;;;;;;21.00;14.23;;;14.10;83.20;;;;;;5008572;28;20419;-83
2021/06/23 05:42:48;;;;;;;19.67;14.83;;;14.20;83.10;;;;;;4984706;28;20566;-84
2021/06/23 05:45:14;;;;;;;25.60;14.47;;;14.20;81.90;;;;;;4982578;28;20489;-84
2021/06/23 05:47:40;;;;;;;32.30;15.83;;;14.20;81.30;;;;;;4981113;28;20426;-84
2021/06/23 05:50:07;;;;;;;23.53;13.53;;;14.20;80.70;;;;;;4981213;28;20524;-83
2021/06/23 05:52:33;;;;;;;19.88;11.88;;;14.10;80.80;;;;;;4979710;28;20410;-88
2021/06/23 05:54:59;;;;;;;19.97;13.43;;;14.10;81.10;;;;;;4980146;28;20353;-81
2021/06/23 05:57:25;;;;;;;19.57;11.70;;;14.10;81.10;;;;;;4994888;28;20618;-80
2021/06/23 05:59:50;;;;;;;22.33;12.80;;;14.00;80.40;;;;;;5002188;28;20270;-79
2021/06/23 06:02:16;;;;;;;24.67;13.70;;;14.00;80.70;;;;;;5005549;28;20223;-80
2021/06/23 06:04:42;;;;;;;22.30;12.77;;;14.20;80.70;;;;;;4997807;28;20225;-80
2021/06/23 06:07:07;;;;;;;13.37;11.07;;;14.10;80.00;;;;;;5003885;28;20206;-81
2021/06/23 06:09:33;;;;;;;21.87;13.10;;;14.30;80.00;;;;;;5010957;28;20642;-81
2021/06/23 06:12:11;;;;;;;16.80;11.50;;;14.40;80.10;;;;;;4978903;28;20246;-81
2021/06/23 06:14:36;;;;;;;26.77;13.23;;;14.50;80.20;;;;;;4983051;28;20183;-80
2021/06/23 06:17:03;;;;;;;22.50;12.70;;;14.70;80.00;;;;;;4981174;28;20180;-81
2021/06/23 06:19:28;;;;;;;31.25;11.80;;;14.70;78.80;;;;;;4981069;28;20425;-80
2021/06/23 06:21:54;;;;;;;14.17;11.00;;;14.60;77.90;;;;;;4980822;28;20203;-80
2021/06/23 06:24:21;;;;;;;19.13;11.68;;;14.60;78.40;;;;;;4981466;28;20646;-80
2021/06/23 06:26:46;;;;;;;13.85;11.45;;;14.60;79.10;;;;;;4998477;28;20172;-80
2021/06/23 06:29:12;;;;;;;22.77;11.83;;;14.70;80.20;;;;;;4974438;28;20179;-80
2021/06/23 06:31:38;;;;;;;15.17;11.20;;;14.80;79.90;;;;;;4960933;28;20674;-80
2021/06/23 06:34:03;;;;;;;14.47;9.90;;;14.70;79.20;;;;;;4962128;28;20180;-80
2021/06/23 06:36:29;;;;;;;14.40;9.10;;;14.80;78.30;;;;;;4986448;28;20172;-81
2021/06/23 06:38:55;;;;;;;18.80;11.37;;;14.90;77.70;;;;;;4963258;28;20207;-80
2021/06/23 06:41:21;;;;;;;12.20;9.90;;;14.90;78.20;;;;;;4969961;28;20450;-80
2021/06/23 06:43:46;;;;;;;11.17;9.20;;;14.80;78.20;;;;;;4979511;28;20184;-80
2021/06/23 06:46:12;;;;;;;13.47;9.27;;;14.90;78.60;;;;;;4962389;28;20184;-81
2021/06/23 06:48:38;;;;;;;22.60;10.77;;;15.10;78.50;;;;;;4965934;28;20175;-81
2021/06/23 06:51:05;;;;;;;10.38;8.82;;;15.30;77.80;;;;;;4980296;28;20253;-81
2021/06/23 06:53:31;;;;;;;16.50;9.45;;;15.40;76.30;;;;;;4999391;28;20175;-81
2021/06/23 06:55:57;;;;;;;11.45;8.40;;;15.70;76.30;;;;;;4981637;28;20270;-81
2021/06/23 06:58:23;;;;;;;16.73;9.00;;;15.70;73.50;;;;;;4981688;28;20211;-81
2021/06/23 07:00:48;;;;;;;13.60;9.90;;;15.80;73.40;;;;;;4980216;28;20431;-81
2021/06/23 07:03:14;;;;;;;10.23;7.23;;;16.00;73.20;;;;;;4980845;28;20214;-81
2021/06/23 07:05:40;;;;;;;11.40;8.67;;;16.00;72.30;;;;;;4998233;28;20429;-80
2021/06/23 07:08:06;;;;;;;12.93;7.70;;;16.00;72.00;;;;;;4980396;28;20199;-81
2021/06/23 07:10:32;;;;;;;11.35;7.88;;;16.40;71.90;;;;;;4979885;28;20199;-81
2021/06/23 07:12:58;;;;;;;10.87;7.87;;;16.40;70.80;;;;;;4980960;28;20180;-81
2021/06/23 07:15:24;;;;;;;12.27;6.80;;;16.10;70.10;;;;;;4980856;28;20505;-82
2021/06/23 07:17:51;;;;;;;11.93;7.90;;;16.20;70.30;;;;;;4998331;28;20457;-81
2021/06/23 07:20:18;;;;;;;8.65;7.45;;;16.10;69.90;;;;;;4980231;28;20171;-82
2021/06/23 07:22:44;;;;;;;8.98;7.70;;;16.10;70.30;;;;;;4980458;28;20294;-80
2021/06/23 07:25:10;;;;;;;19.30;6.50;;;16.10;69.80;;;;;;4997831;28;20179;-81
2021/06/23 07:27:36;;;;;;;16.08;7.70;;;16.10;69.70;;;;;;4980391;28;20418;-81
2021/06/23 07:30:03;;;;;;;12.68;8.20;;;16.00;70.60;;;;;;4981357;28;20227;-81
2021/06/23 07:32:32;;;;;;;12.77;6.55;;;16.10;70.70;;;;;;5004507;28;20243;-80
2021/06/23 07:37:42;;;;;;;13.27;6.28;;;16.40;68.50;;;;;;4997799;28;20183;-80
2021/06/23 07:40:10;;;;;;;9.00;6.73;;;16.60;67.40;;;;;;4981358;28;20187;-81
2021/06/23 07:42:35;;;;;;;11.80;6.60;;;16.80;66.70;;;;;;4980042;28;20210;-81
2021/06/23 07:45:03;;;;;;;10.80;7.17;;;16.80;66.80;;;;;;4990147;28;20186;-81
2021/06/23 07:47:33;;;;;;;12.13;6.97;;;16.90;67.70;;;;;;4981299;28;20183;-81
2021/06/23 07:49:59;;;;;;;14.77;7.05;;;17.00;66.70;;;;;;4980495;28;20187;-82
2021/06/23 07:52:31;;;;;;;9.95;6.50;;;17.20;66.40;;;;;;4980634;28;20242;-81
2021/06/23 08:08:48;;;;;;;7.20;5.35;;;17.80;62.20;;;;;;4997223;28;20571;-81
2021/06/23 08:11:21;;;;;;;16.77;5.80;;;18.20;61.70;;;;;;4977146;28;20230;-81
2021/06/23 08:13:47;;;;;;;6.20;5.13;;;18.50;61.20;;;;;;4960093;28;20215;-81
2021/06/23 08:16:14;;;;;;;6.75;4.85;;;18.80;59.60;;;;;;4977185;28;20171;-81
2021/06/23 08:18:40;;;;;;;10.18;5.32;;;18.70;59.00;;;;;;4976975;28;20172;-81
2021/06/23 08:21:06;;;;;;;12.27;6.03;;;18.60;57.70;;;;;;4958947;28;20295;-81
2021/06/23 08:23:32;;;;;;;10.25;6.00;;;18.80;57.50;;;;;;4959514;28;21017;-81
2021/06/23 08:25:58;;;;;;;10.93;6.80;;;18.40;57.50;;;;;;4967384;28;20225;-81
2021/06/23 08:28:23;;;;;;;12.70;5.67;;;18.00;58.30;;;;;;4958000;28;20199;-81
2021/06/23 08:30:51;;;;;;;8.27;5.20;;;18.00;59.60;;;;;;4975356;28;20231;-81
2021/06/23 08:33:17;;;;;;;9.23;4.65;;;18.20;59.70;;;;;;4977770;28;20526;-81
2021/06/23 08:35:42;;;;;;;13.30;5.30;;;18.50;58.60;;;;;;4960829;28;20187;-80
2021/06/23 08:38:08;;;;;;;6.70;5.07;;;18.50;57.70;;;;;;4961897;28;20184;-81
2021/06/23 08:40:34;;;;;;;10.83;4.70;;;18.40;57.90;;;;;;4961361;28;20191;-81
2021/06/23 08:43:00;;;;;;;13.70;4.60;;;18.40;56.80;;;;;;4962498;28;20183;-81
2021/06/23 08:45:26;;;;;;;5.70;5.10;;;18.30;56.50;;;;;;4969004;28;20435;-81
2021/06/23 08:47:51;;;;;;;7.53;4.10;;;18.40;56.10;;;;;;4968018;28;20200;-80
2021/06/23 08:50:22;;;;;;;13.30;4.63;;;18.50;56.20;;;;;;4980812;28;20183;-81
2021/06/23 08:52:49;;;;;;;14.90;5.30;;;18.50;56.30;;;;;;4997701;28;20953;-81
2021/06/23 08:55:19;;;;;;;17.02;4.45;;;18.30;55.30;;;;;;4979794;28;20190;-79
2021/06/23 08:57:50;;;;;;;6.57;4.35;;;18.20;55.90;;;;;;4979501;28;20168;-80
2021/06/23 09:00:17;;;;;;;8.48;4.65;;;18.30;57.00;;;;;;4982529;28;20238;-82
2021/06/23 09:02:45;;;;;;;10.25;4.35;;;18.20;56.40;;;;;;5010628;28;20265;-80
2021/06/23 09:05:13;;;;;;;12.13;5.80;;;18.30;56.80;;;;;;4979432;28;20194;-80
2021/06/23 09:07:41;;;;;;;8.02;4.85;;;18.10;56.10;;;;;;4985083;28;20179;-80
2021/06/23 09:10:27;;;;;;;8.95;5.63;;;18.00;57.10;;;;;;4996280;28;20621;-80
2021/06/23 09:13:08;;;;;;;12.73;5.28;;;18.00;56.90;;;;;;4979250;28;20187;-81
2021/06/23 09:15:59;;;;;;;13.90;5.15;;;17.70;57.00;;;;;;4974868;28;20183;-80
2021/06/23 09:18:35;;;;;;;14.77;5.80;;;17.90;57.20;;;;;;4965531;28;20244;-80
2021/06/23 09:21:15;;;;;;;6.45;4.63;;;18.00;57.40;;;;;;4960761;28;20637;-81
2021/06/23 09:23:46;;;;;;;8.07;5.10;;;18.00;57.30;;;;;;4960563;28;20211;-81
2021/06/23 09:26:14;;;;;;;6.78;5.07;;;18.10;57.90;;;;;;4960553;28;20187;-81
2021/06/23 09:28:41;;;;;;;6.10;5.28;;;18.40;58.10;;;;;;4977612;28;20176;-80
2021/06/23 09:31:09;;;;;;;7.53;5.28;;;18.60;56.90;;;;;;4976344;28;20247;-80
2021/06/23 09:33:35;;;;;;;5.47;4.95;;;19.00;57.30;;;;;;4957783;28;20671;-82
2021/06/23 09:36:04;;;;;;;6.07;5.47;;;19.20;55.00;;;;;;4981225;28;20179;-82
2021/06/23 09:38:43;;;;;;;7.97;6.10;;;18.90;55.10;;;;;;4983780;28;20233;-82
2021/06/23 09:41:33;;;;;;;7.82;6.22;;;18.80;55.90;;;;;;4984069;28;20293;-82
2021/06/23 09:44:06;;;;;;;9.40;5.75;;;18.60;55.50;;;;;;4984942;28;20187;-83
2021/06/23 09:46:37;;;;;;;9.35;6.35;;;18.40;57.20;;;;;;4996049;28;20291;-81
2021/06/23 09:49:11;;;;;;;8.55;6.28;;;18.50;57.10;;;;;;4986617;28;20183;-81
2021/06/23 09:51:57;;;;;;;9.15;5.25;;;18.50;56.20;;;;;;4984702;28;20217;-82
2021/06/23 09:54:29;;;;;;;13.35;6.80;;;18.30;57.50;;;;;;4983531;28;20206;-82
2021/06/23 09:57:06;;;;;;;12.60;7.40;;;18.30;59.20;;;;;;4984077;28;20190;-83
2021/06/23 09:59:37;;;;;;;15.55;6.80;;;18.40;59.70;;;;;;4985373;28;20174;-82
2021/06/23 10:02:19;;;;;;;10.60;7.45;;;18.40;58.40;;;;;;4983673;28;20246;-82
2021/06/23 10:04:44;;;;;;;10.73;6.78;;;18.50;58.50;;;;;;4984696;28;20233;-83
2021/06/23 10:07:10;;;;;;;10.23;7.67;;;18.50;56.90;;;;;;4985094;28;20187;-83
2021/06/23 10:09:36;;;;;;;11.77;6.57;;;18.80;56.70;;;;;;4984595;28;20183;-83
2021/06/23 10:12:07;;;;;;;12.93;7.43;;;19.00;55.90;;;;;;4987758;28;20690;-82
2021/06/23 10:14:39;;;;;;;12.15;6.88;;;19.00;55.70;;;;;;4984167;28;20206;-82
2021/06/23 10:17:08;;;;;;;10.05;6.30;;;19.20;56.60;;;;;;5001802;28;20155;-83
2021/06/23 10:19:33;;;;;;;8.05;5.88;;;19.50;55.50;;;;;;4984316;28;20182;-83
2021/06/23 10:22:01;;;;;;;12.70;6.67;;;19.50;55.30;;;;;;4983284;28;20207;-83
2021/06/23 10:24:30;;;;;;;15.88;5.82;;;19.60;55.00;;;;;;5001190;28;20171;-82
2021/06/23 10:26:58;;;;;;;7.13;5.22;;;19.80;55.50;;;;;;4983879;28;20191;-83
2021/06/23 10:29:29;;;;;;;11.43;6.80;;;19.80;54.50;;;;;;5001291;28;20180;-83
2021/06/23 10:31:56;;;;;;;12.00;5.90;;;19.90;53.20;;;;;;5000504;28;20219;-83
2021/06/23 10:34:23;;;;;;;13.05;7.63;;;20.10;53.20;;;;;;5001389;28;20417;-83
2021/06/23 10:36:49;;;;;;;9.88;5.90;;;20.20;52.90;;;;;;4983431;28;20195;-83
2021/06/23 10:39:17;;;;;;;10.65;5.03;;;20.10;52.00;;;;;;4983358;28;20551;-84
2021/06/23 10:41:46;;;;;;;9.65;5.25;;;19.80;51.90;;;;;;5001019;28;20199;-83
2021/06/23 10:44:47;;;;;;;5.88;5.32;;;20.00;53.10;;;;;;4984520;28;20175;-83
2021/06/23 10:47:34;;;;;;;13.90;6.20;;;20.20;53.80;;;;;;4980341;28;20214;-82
2021/06/23 10:50:00;;;;;;;5.35;4.85;;;19.90;53.30;;;;;;4989425;28;20194;-82
2021/06/23 10:52:37;;;;;;;11.73;6.30;;;19.80;53.00;;;;;;4982935;28;20634;-82
2021/06/23 10:55:13;;;;;;;10.63;5.60;;;19.70;52.80;;;;;;5001176;28;20221;-83
2021/06/23 10:57:38;;;;;;;7.80;6.13;;;19.80;52.30;;;;;;5000316;28;20156;-83
2021/06/23 11:00:10;;;;;;;8.03;5.27;;;19.70;51.60;;;;;;5000320;28;20267;-84
2021/06/23 11:02:39;;;;;;;9.13;5.43;;;19.80;51.70;;;;;;4981121;28;20218;-82
2021/06/23 11:05:08;;;;;;;14.88;5.45;;;19.90;51.50;;;;;;4986404;28;20187;-83
2021/06/23 11:07:37;;;;;;;11.50;6.20;;;20.00;51.90;;;;;;4992038;28;20190;-83
2021/06/23 11:10:15;;;;;;;7.07;5.57;;;20.20;51.50;;;;;;4998403;28;20175;-83
2021/06/23 11:12:47;;;;;;;7.82;5.53;;;20.40;52.50;;;;;;4981759;28;20541;-83
2021/06/23 11:15:14;;;;;;;6.93;5.45;;;20.20;51.30;;;;;;4997909;28;20168;-84
2021/06/23 11:17:40;;;;;;;6.20;5.60;;;20.30;51.60;;;;;;4980091;28;20194;-83
2021/06/23 11:20:26;;;;;;;8.20;5.77;;;20.30;51.60;;;;;;4982244;28;20183;-83
2021/06/23 11:22:57;;;;;;;10.27;5.80;;;20.40;52.20;;;;;;4980960;28;20425;-83
2021/06/23 11:25:26;;;;;;;12.00;5.93;;;20.50;50.60;;;;;;4998951;28;20513;-83
2021/06/23 11:28:25;;;;;;;14.67;6.20;;;20.50;51.00;;;;;;4981405;28;20447;-83
2021/06/23 11:30:51;;;;;;;6.90;6.20;;;20.70;49.40;;;;;;4968994;28;20565;-82
2021/06/23 11:33:29;;;;;;;7.90;4.67;;;21.00;49.80;;;;;;4979642;28;20446;-82
2021/06/23 11:35:56;;;;;;;6.90;4.97;;;21.00;49.10;;;;;;4979263;28;20269;-84
2021/06/23 11:38:22;;;;;;;9.33;5.67;;;21.40;48.40;;;;;;4982657;28;20441;-84
2021/06/23 11:40:49;;;;;;;7.30;5.67;;;21.10;47.30;;;;;;4982014;28;20510;-84
2021/06/23 11:43:16;;;;;;;7.00;5.93;;;21.30;47.60;;;;;;4982585;28;20481;-84
2021/06/23 11:45:42;;;;;;;11.60;6.37;;;21.50;48.10;;;;;;4982697;28;20418;-84
2021/06/23 11:48:08;;;;;;;16.80;7.63;;;21.40;48.90;;;;;;5000969;28;20575;-84
2021/06/23 11:50:34;;;;;;;10.47;5.60;;;21.30;49.00;;;;;;4989845;28;20461;-84
2021/06/23 11:53:01;;;;;;;7.40;5.80;;;21.30;49.20;;;;;;4988837;28;20422;-84
2021/06/23 11:55:27;;;;;;;7.10;5.23;;;20.90;50.20;;;;;;4999348;28;20430;-85
2021/06/23 11:57:58;;;;;;;9.77;5.20;;;20.70;49.90;;;;;;4983557;28;20517;-86
2021/06/23 12:00:26;;;;;;;11.03;6.50;;;20.70;50.80;;;;;;4998800;28;20215;-85
2021/06/23 12:02:52;;;;;;;6.93;5.60;;;21.00;49.80;;;;;;4982539;28;20941;-85
2021/06/23 12:05:19;;;;;;;8.57;5.90;;;21.20;49.20;;;;;;4983744;28;20434;-85
2021/06/23 12:07:45;;;;;;;10.70;5.80;;;21.40;49.20;;;;;;4983706;28;20469;-84
2021/06/23 12:10:11;;;;;;;12.50;5.60;;;21.60;48.00;;;;;;4975284;28;20435;-84
2021/06/23 12:12:37;;;;;;;12.40;6.23;;;21.70;47.80;;;;;;4980496;28;20975;-85
2021/06/23 12:15:08;;;;;;;7.70;6.47;;;21.40;47.60;;;;;;4962691;28;20530;-85
2021/06/23 12:17:35;;;;;;;8.27;6.50;;;21.40;47.90;;;;;;4963597;28;20628;-90
2021/06/23 12:20:03;;;;;;;8.20;5.60;;;21.40;49.20;;;;;;4982157;28;20415;-82
2021/06/23 12:22:30;;;;;;;8.77;6.40;;;21.00;48.90;;;;;;4964197;28;20993;-83
2021/06/23 12:24:57;;;;;;;8.33;5.50;;;21.30;49.20;;;;;;4964421;28;20434;-83
2021/06/23 12:27:23;;;;;;;9.73;6.73;;;21.20;49.20;;;;;;4964114;28;20961;-83
2021/06/23 12:29:50;;;;;;;15.60;7.37;;;21.30;48.70;;;;;;5011486;28;20413;-83
2021/06/23 12:32:16;;;;;;;12.73;6.20;;;21.30;47.90;;;;;;5001135;28;20525;-83
2021/06/23 12:34:41;;;;;;;11.27;6.40;;;21.30;49.60;;;;;;5019833;28;20468;-83
2021/06/23 12:37:07;;;;;;;9.40;6.13;;;21.50;48.40;;;;;;5003275;28;20597;-83
2021/06/23 12:39:33;;;;;;;9.90;6.20;;;21.20;48.70;;;;;;5003557;28;20178;-84
2021/06/23 12:41:59;;;;;;;10.63;6.73;;;20.90;49.30;;;;;;5021208;28;20198;-83
2021/06/23 12:44:25;;;;;;;10.50;5.93;;;21.10;48.40;;;;;;5002377;28;20186;-83
2021/06/23 12:46:51;;;;;;;15.73;6.20;;;21.40;49.10;;;;;;5003126;28;20424;-84
2021/06/23 12:49:17;;;;;;;12.60;6.07;;;21.60;47.00;;;;;;4998435;28;20496;-83
2021/06/23 12:51:43;;;;;;;14.27;6.17;;;21.70;46.80;;;;;;4997503;28;20485;-84
2021/06/23 12:54:09;;;;;;;6.90;6.00;;;22.00;46.80;;;;;;5009263;28;20418;-83
2021/06/23 12:56:35;;;;;;;9.17;6.83;;;22.30;47.20;;;;;;5005623;28;20425;-84
2021/06/23 12:59:01;;;;;;;12.17;6.30;;;22.30;46.20;;;;;;5014847;28;20497;-84